createdAt,value
2023-04-29T00:00:32.495Z,7.98
2023-04-29T00:02:59.534Z,7.95
2023-04-29T00:05:27.071Z,7.91
2023-04-29T00:07:54.019Z,7.88
2023-04-29T00:10:20.867Z,7.86
2023-04-29T00:12:47.650Z,7.84
2023-04-29T00:15:14.549Z,7.82
2023-04-29T00:17:41.538Z,7.82
2023-04-29T00:20:09.364Z,7.81
2023-04-29T00:22:36.238Z,7.79
2023-04-29T00:25:04.410Z,7.76
2023-04-29T00:27:31.228Z,7.74
2023-04-29T00:29:58.371Z,7.73
2023-04-29T00:32:25.472Z,7.69
2023-04-29T00:34:52.410Z,7.66
2023-04-29T00:37:19.206Z,7.66
2023-04-29T00:39:46.154Z,7.66
2023-04-29T00:42:12.927Z,7.63
2023-04-29T00:44:39.724Z,7.63
2023-04-29T00:47:11.540Z,7.61
2023-04-29T00:49:42.252Z,7.57
2023-04-29T00:52:09.300Z,7.56
2023-04-29T00:54:36.364Z,7.52
2023-04-29T00:57:04.378Z,7.46
2023-04-29T00:59:32.580Z,7.46
2023-04-29T01:02:04.236Z,7.46
2023-04-29T01:04:31.674Z,7.45
2023-04-29T01:07:04.711Z,7.42
2023-04-29T01:09:38.193Z,7.39
2023-04-29T01:12:13.765Z,7.34
2023-04-29T01:14:40.549Z,7.33
2023-04-29T01:17:11.091Z,7.30
2023-04-29T01:19:44.197Z,7.31
2023-04-29T01:22:11.847Z,7.27
2023-04-29T01:24:39.610Z,7.19
2023-04-29T01:27:36.047Z,7.17
2023-04-29T01:30:42.631Z,7.18
2023-04-29T01:33:17.802Z,7.18
2023-04-29T01:36:05.514Z,7.19
2023-04-29T01:38:32.450Z,7.21
2023-04-29T01:41:23.875Z,7.21
2023-04-29T01:43:53.911Z,7.23
2023-04-29T01:46:23.718Z,7.23
2023-04-29T01:48:55.035Z,7.25
2023-04-29T01:51:22.118Z,7.25
2023-04-29T01:53:49.349Z,7.25
2023-04-29T01:56:18.351Z,7.25
2023-04-29T01:58:57.308Z,7.25
2023-04-29T02:01:26.962Z,7.24
2023-04-29T02:03:54.402Z,7.24
2023-04-29T02:06:21.576Z,7.24
2023-04-29T02:08:52.615Z,7.26
2023-04-29T02:11:21.200Z,7.27
2023-04-29T02:13:48.208Z,7.29
2023-04-29T02:16:16.199Z,7.30
2023-04-29T02:19:03.462Z,7.32
2023-04-29T02:21:31.888Z,7.31
2023-04-29T02:24:00.035Z,7.31
2023-04-29T02:26:26.949Z,7.30
2023-04-29T02:28:57.385Z,7.30
2023-04-29T02:31:24.335Z,7.29
2023-04-29T02:33:51.466Z,7.30
2023-04-29T02:36:18.516Z,7.30
2023-04-29T02:38:45.298Z,7.30
2023-04-29T02:41:19.282Z,7.30
2023-04-29T02:43:49.324Z,7.30
2023-04-29T02:46:19.367Z,7.31
2023-04-29T02:48:46.315Z,7.30
2023-04-29T02:51:13.599Z,7.29
2023-04-29T02:53:40.614Z,7.29
2023-04-29T02:56:07.828Z,7.29
2023-04-29T02:58:34.745Z,7.29
2023-04-29T03:01:01.653Z,7.29
2023-04-29T03:03:28.772Z,7.28
2023-04-29T03:05:56.126Z,7.28
2023-04-29T03:08:22.904Z,7.26
2023-04-29T03:10:49.966Z,7.24
2023-04-29T03:13:16.921Z,7.23
2023-04-29T03:15:44.582Z,7.23
2023-04-29T03:18:11.532Z,7.22
2023-04-29T03:20:38.498Z,7.22
2023-04-29T03:23:05.509Z,7.22
2023-04-29T03:25:32.482Z,7.22
2023-04-29T03:27:59.268Z,7.21
2023-04-29T03:30:26.632Z,7.22
2023-04-29T03:32:55.642Z,7.23
2023-04-29T03:35:22.666Z,7.24
2023-04-29T03:38:08.424Z,7.26
2023-04-29T03:40:36.212Z,7.27
2023-04-29T03:43:03.824Z,7.27
2023-04-29T03:45:31.168Z,7.28
2023-04-29T03:47:58.290Z,7.31
2023-04-29T03:50:26.193Z,7.32
2023-04-29T03:52:53.121Z,7.33
2023-04-29T03:55:20.125Z,7.34
2023-04-29T03:57:47.231Z,7.36
2023-04-29T04:00:14.567Z,7.39
2023-04-29T04:02:45.444Z,7.40
2023-04-29T04:05:13.265Z,7.42
2023-04-29T04:07:42.256Z,7.44
2023-04-29T04:10:28.546Z,7.49
2023-04-29T04:12:56.601Z,7.52
2023-04-29T04:15:23.747Z,7.55
2023-04-29T04:17:50.741Z,7.59
2023-04-29T04:20:18.111Z,7.64
2023-04-29T04:22:45.444Z,7.68
2023-04-29T04:25:22.430Z,7.73
2023-04-29T04:27:49.667Z,7.75
2023-04-29T04:30:25.883Z,7.71
2023-04-29T04:32:52.901Z,7.70
2023-04-29T04:35:19.789Z,7.72
2023-04-29T04:37:46.984Z,7.78
2023-04-29T04:40:14.092Z,7.80
2023-04-29T04:43:00.922Z,7.84
2023-04-29T04:45:31.450Z,7.88
2023-04-29T04:47:59.017Z,7.94
2023-04-29T04:50:31.221Z,7.98
2023-04-29T04:52:58.130Z,8.03
2023-04-29T04:55:47.745Z,8.11
2023-04-29T04:58:14.584Z,8.15
2023-04-29T05:00:45.251Z,8.20
2023-04-29T05:03:12.321Z,8.28
2023-04-29T05:05:39.454Z,8.37
2023-04-29T05:08:06.574Z,8.41
2023-04-29T05:10:37.956Z,8.46
2023-04-29T05:13:05.787Z,8.54
2023-04-29T05:15:33.746Z,8.60
2023-04-29T05:18:01.580Z,8.64
2023-04-29T05:20:28.497Z,8.68
2023-04-29T05:22:55.508Z,8.71
2023-04-29T05:25:22.909Z,8.75
2023-04-29T05:27:49.853Z,8.74
2023-04-29T05:30:19.272Z,8.75
2023-04-29T05:32:46.974Z,8.76
2023-04-29T05:35:15.802Z,8.81
2023-04-29T05:37:44.449Z,8.83
2023-04-29T05:40:27.349Z,8.87
2023-04-29T05:43:00.245Z,8.89
2023-04-29T05:45:27.562Z,8.90
2023-04-29T05:47:54.514Z,8.92
2023-04-29T05:50:22.500Z,8.96
2023-04-29T05:52:49.904Z,9.04
2023-04-29T05:55:16.968Z,9.12
2023-04-29T05:57:44.219Z,9.19
2023-04-29T06:00:11.515Z,9.33
2023-04-29T06:02:54.800Z,9.50
2023-04-29T06:05:25.290Z,9.68
2023-04-29T06:08:18.863Z,9.87
2023-04-29T06:11:03.422Z,9.96
2023-04-29T06:13:31.104Z,10.00
2023-04-29T06:15:57.885Z,10.04
2023-04-29T06:18:24.992Z,10.12
2023-04-29T06:20:51.914Z,10.20
2023-04-29T06:23:18.954Z,10.27
2023-04-29T06:25:46.119Z,10.37
2023-04-29T06:28:12.972Z,10.38
2023-04-29T06:30:39.870Z,10.32
2023-04-29T06:33:08.403Z,10.35
2023-04-29T06:35:39.649Z,10.42
2023-04-29T06:38:26.838Z,10.38
2023-04-29T06:41:16.913Z,10.37
2023-04-29T06:43:43.765Z,10.45
2023-04-29T06:46:29.811Z,10.53
2023-04-29T06:49:16.864Z,10.55
2023-04-29T06:51:43.858Z,10.59
2023-04-29T06:54:10.672Z,10.67
2023-04-29T06:56:37.564Z,10.75
2023-04-29T06:59:04.623Z,10.81
2023-04-29T07:01:31.512Z,10.91
2023-04-29T07:03:58.460Z,10.94
2023-04-29T07:06:25.579Z,10.98
2023-04-29T07:08:53.744Z,11.07
2023-04-29T07:11:24.868Z,11.12
2023-04-29T07:13:53.572Z,11.19
2023-04-29T07:16:22.349Z,11.17
2023-04-29T07:18:50.041Z,11.09
2023-04-29T07:21:16.810Z,11.02
2023-04-29T07:23:43.624Z,10.96
2023-04-29T07:26:15.893Z,10.92
2023-04-29T07:28:44.905Z,10.94
2023-04-29T07:31:15.092Z,10.97
2023-04-29T07:33:42.040Z,11.04
2023-04-29T07:36:11.078Z,11.12
2023-04-29T07:38:37.913Z,11.20
2023-04-29T07:41:04.841Z,11.32
2023-04-29T07:43:31.781Z,11.44
2023-04-29T07:45:59.599Z,11.49
2023-04-29T07:48:26.451Z,11.45
2023-04-29T07:50:53.310Z,11.43
2023-04-29T07:53:20.122Z,11.48
2023-04-29T07:55:47.508Z,11.49
2023-04-29T07:58:14.614Z,11.42
2023-04-29T08:00:41.809Z,11.39
2023-04-29T08:03:08.717Z,11.40
2023-04-29T08:05:36.574Z,11.39
2023-04-29T08:08:03.958Z,11.39
2023-04-29T08:10:31.073Z,11.41
2023-04-29T08:12:58.142Z,11.49
2023-04-29T08:15:25.059Z,11.54
2023-04-29T08:17:52.945Z,11.64
2023-04-29T08:20:20.136Z,11.72
2023-04-29T08:22:47.302Z,11.79
2023-04-29T08:25:14.086Z,11.85
2023-04-29T08:27:40.935Z,11.93
2023-04-29T08:30:08.956Z,12.04
2023-04-29T08:32:35.954Z,12.08
2023-04-29T08:35:03.348Z,12.12
2023-04-29T08:37:30.412Z,12.17
2023-04-29T08:39:57.202Z,12.23
2023-04-29T08:42:36.469Z,12.32
2023-04-29T08:45:03.972Z,12.48
2023-04-29T08:47:31.851Z,12.64
2023-04-29T08:50:02.416Z,12.80
2023-04-29T08:52:29.596Z,12.89
2023-04-29T08:54:56.938Z,12.99
2023-04-29T08:57:25.893Z,13.14
2023-04-29T08:59:52.708Z,13.28
2023-04-29T09:02:21.594Z,13.39
2023-04-29T09:05:06.573Z,13.42
2023-04-29T09:07:33.591Z,13.45
2023-04-29T09:10:00.497Z,13.45
2023-04-29T09:12:27.492Z,13.49
2023-04-29T09:14:54.404Z,13.58
2023-04-29T09:17:44.528Z,13.69
2023-04-29T09:20:23.646Z,13.80
2023-04-29T09:23:01.703Z,13.79
2023-04-29T09:25:28.786Z,13.76
2023-04-29T09:27:55.738Z,13.80
2023-04-29T09:30:23.108Z,13.81
2023-04-29T09:33:09.378Z,13.71
2023-04-29T09:35:36.540Z,13.66
2023-04-29T09:38:11.789Z,13.67
2023-04-29T09:40:50.159Z,13.61
2023-04-29T09:43:24.138Z,13.61
2023-04-29T09:45:51.174Z,13.66
2023-04-29T09:48:18.693Z,13.73
2023-04-29T09:50:47.204Z,13.78
2023-04-29T09:53:14.148Z,13.88
2023-04-29T09:55:53.345Z,14.04
2023-04-29T09:58:31.659Z,14.22
2023-04-29T10:01:01.860Z,14.40
2023-04-29T10:03:33.858Z,14.51
2023-04-29T10:06:01.839Z,14.57
2023-04-29T10:08:32.634Z,14.65
2023-04-29T10:11:00.760Z,14.69
2023-04-29T10:13:28.576Z,14.70
2023-04-29T10:16:38.301Z,14.81
2023-04-29T10:19:07.026Z,15.03
2023-04-29T10:21:33.769Z,15.12
2023-04-29T10:24:02.330Z,15.13
2023-04-29T10:26:29.688Z,15.21
2023-04-29T10:28:56.935Z,15.32
2023-04-29T10:31:26.944Z,15.44
2023-04-29T10:33:57.719Z,15.58
2023-04-29T10:36:31.692Z,15.67
2023-04-29T10:38:59.827Z,15.72
2023-04-29T10:41:28.755Z,15.78
2023-04-29T10:43:55.725Z,15.85
2023-04-29T10:46:24.086Z,15.88
2023-04-29T10:48:55.523Z,15.98
2023-04-29T10:51:33.346Z,16.17
2023-04-29T10:54:07.711Z,16.35
2023-04-29T10:56:38.147Z,16.36
2023-04-29T10:59:05.057Z,16.36
2023-04-29T11:01:52.614Z,16.38
2023-04-29T11:04:20.917Z,16.37
2023-04-29T11:06:51.701Z,16.34
2023-04-29T11:09:22.451Z,16.40
2023-04-29T11:11:58.351Z,16.49
2023-04-29T11:14:51.838Z,16.51
2023-04-29T11:17:23.548Z,16.51
2023-04-29T11:19:51.169Z,16.53
2023-04-29T11:22:18.400Z,16.68
2023-04-29T11:24:53.031Z,16.87
2023-04-29T11:27:20.896Z,17.09
2023-04-29T11:29:47.723Z,17.27
2023-04-29T11:32:15.710Z,17.47
2023-04-29T11:34:42.527Z,17.69
2023-04-29T11:37:09.419Z,17.87
2023-04-29T11:39:36.296Z,18.04
2023-04-29T11:42:06.849Z,18.19
2023-04-29T11:45:26.029Z,18.43
2023-04-29T11:47:54.878Z,18.51
2023-04-29T11:50:23.015Z,18.42
2023-04-29T11:52:50.199Z,18.36
2023-04-29T11:55:17.482Z,18.47
2023-04-29T11:57:44.531Z,18.60
2023-04-29T12:00:13.637Z,18.75
2023-04-29T12:02:47.127Z,18.96
2023-04-29T12:05:16.299Z,19.16
2023-04-29T12:07:43.593Z,19.35
2023-04-29T12:10:11.675Z,19.49
2023-04-29T12:12:43.822Z,19.59
2023-04-29T12:15:11.261Z,19.58
2023-04-29T12:17:39.181Z,19.61
2023-04-29T12:20:09.320Z,19.61
2023-04-29T12:22:36.217Z,19.61
2023-04-29T12:25:03.968Z,19.69
2023-04-29T12:27:30.888Z,19.82
2023-04-29T12:29:58.262Z,19.97
2023-04-29T12:32:25.930Z,20.00
2023-04-29T12:34:53.525Z,20.09
2023-04-29T12:37:23.712Z,20.18
2023-04-29T12:39:50.907Z,20.11
2023-04-29T12:42:17.850Z,20.00
2023-04-29T12:44:48.532Z,20.00
2023-04-29T12:47:16.318Z,20.10
2023-04-29T12:49:44.627Z,20.18
2023-04-29T12:52:11.672Z,20.28
2023-04-29T12:54:41.796Z,20.35
2023-04-29T12:57:10.351Z,20.41
2023-04-29T12:59:37.636Z,20.29
2023-04-29T13:02:05.039Z,19.96
2023-04-29T13:04:32.428Z,19.63
2023-04-29T13:07:04.486Z,19.47
2023-04-29T13:09:31.488Z,19.27
2023-04-29T13:11:59.284Z,18.97
2023-04-29T13:14:27.047Z,18.80
2023-04-29T13:16:54.268Z,18.75
2023-04-29T13:21:53.268Z,18.55
2023-04-29T13:24:21.153Z,18.41
2023-04-29T13:26:51.718Z,18.29
2023-04-29T13:29:19.511Z,18.28
2023-04-29T13:31:46.440Z,18.29
2023-04-29T13:34:13.688Z,18.28
2023-04-29T13:36:40.833Z,18.29
2023-04-29T13:39:07.746Z,18.30
2023-04-29T13:41:35.642Z,18.29
2023-04-29T13:44:04.362Z,18.28
2023-04-29T13:46:33.096Z,18.21
2023-04-29T13:52:01.436Z,18.05
2023-04-29T14:04:19.233Z,18.10
2023-04-29T14:06:46.283Z,18.14
2023-04-29T14:09:13.136Z,18.19
2023-04-29T14:11:40.197Z,18.26
2023-04-29T14:14:08.004Z,18.36
2023-04-29T14:16:34.785Z,18.45
2023-04-29T14:19:03.730Z,18.60
2023-04-29T14:21:33.226Z,19.11
2023-04-29T14:24:00.859Z,20.45
2023-04-29T14:26:28.932Z,22.47
2023-04-29T14:28:59.879Z,24.75
2023-04-29T14:31:31.227Z,27.09
2023-04-29T14:33:58.071Z,29.24
2023-04-29T14:36:25.403Z,31.13
2023-04-29T14:38:52.665Z,32.88
2023-04-29T14:41:21.610Z,34.51
2023-04-29T14:43:48.742Z,35.96
2023-04-29T14:46:15.882Z,37.13
2023-04-29T14:48:42.811Z,38.14
2023-04-29T14:51:09.689Z,39.00
2023-04-29T14:53:36.473Z,39.82
2023-04-29T14:56:03.828Z,40.60
2023-04-29T14:58:30.837Z,41.15
2023-04-29T15:00:57.649Z,41.27
2023-04-29T15:03:24.671Z,41.59
2023-04-29T15:05:51.820Z,41.99
2023-04-29T15:08:19.263Z,42.34
2023-04-29T15:10:47.656Z,42.35
2023-04-29T15:13:14.946Z,41.88
2023-04-29T15:15:42.075Z,41.25
2023-04-29T15:18:09.278Z,40.80
2023-04-29T15:20:37.294Z,40.55
2023-04-29T15:23:06.679Z,40.46
2023-04-29T15:25:36.146Z,40.46
2023-04-29T15:28:04.995Z,40.68
2023-04-29T15:30:32.231Z,40.97
2023-04-29T15:32:59.121Z,41.11
2023-04-29T15:35:26.107Z,41.08
2023-04-29T15:37:53.080Z,40.72
2023-04-29T15:40:20.368Z,40.14
2023-04-29T15:42:47.198Z,39.51
2023-04-29T15:45:14.324Z,38.86
2023-04-29T15:47:42.230Z,38.32
2023-04-29T15:50:10.615Z,38.06
2023-04-29T15:52:37.876Z,38.03
2023-04-29T15:55:06.720Z,38.21
2023-04-29T15:57:35.329Z,38.42
2023-04-29T16:00:02.186Z,38.53
2023-04-29T16:02:29.248Z,38.29
2023-04-29T16:04:56.233Z,37.85
2023-04-29T16:07:22.956Z,37.30
2023-04-29T16:09:49.676Z,36.73
2023-04-29T16:12:16.575Z,36.46
2023-04-29T16:14:43.805Z,36.32
2023-04-29T16:17:10.621Z,36.31
2023-04-29T16:19:37.573Z,36.40
2023-04-29T16:22:04.718Z,36.51
2023-04-29T16:24:31.554Z,36.65
2023-04-29T16:26:59.253Z,36.70
2023-04-29T16:29:26.612Z,36.72
2023-04-29T16:31:53.710Z,36.64
2023-04-29T16:34:20.796Z,36.33
2023-04-29T16:36:47.671Z,35.85
2023-04-29T16:39:14.447Z,35.42
2023-04-29T16:41:41.388Z,35.03
2023-04-29T16:44:08.702Z,34.79
2023-04-29T16:46:36.234Z,34.52
2023-04-29T16:49:03.543Z,34.17
2023-04-29T16:51:32.697Z,33.80
2023-04-29T16:54:00.271Z,33.43
2023-04-29T16:56:30.806Z,33.02
2023-04-29T16:58:57.749Z,32.44
2023-04-29T17:01:24.879Z,31.64
2023-04-29T17:03:51.679Z,30.75
2023-04-29T17:06:19.130Z,29.84
2023-04-29T17:08:47.149Z,28.96
2023-04-29T17:11:15.834Z,28.05
2023-04-29T17:13:45.026Z,27.14
2023-04-29T17:16:14.143Z,26.24
2023-04-29T17:18:41.772Z,25.36
2023-04-29T17:21:09.024Z,24.58
2023-04-29T17:23:36.130Z,23.90
2023-04-29T17:26:03.689Z,23.28
2023-04-29T17:28:31.076Z,22.71
2023-04-29T17:31:01.125Z,22.14
2023-04-29T17:33:34.129Z,21.58
2023-04-29T17:36:04.676Z,21.06
2023-04-29T17:38:35.054Z,20.59
2023-04-29T17:41:02.088Z,20.16
2023-04-29T17:43:32.419Z,19.75
2023-04-29T17:45:59.389Z,19.33
2023-04-29T17:48:26.310Z,18.98
2023-04-29T17:50:53.982Z,18.67
2023-04-29T17:53:20.843Z,18.36
2023-04-29T17:55:47.803Z,18.05
2023-04-29T17:58:14.661Z,17.78
2023-04-29T18:00:41.895Z,17.52
2023-04-29T18:03:09.226Z,17.26
2023-04-29T18:05:36.395Z,17.05
2023-04-29T18:08:06.118Z,16.86
2023-04-29T18:10:33.223Z,16.69
2023-04-29T18:13:00.322Z,16.53
2023-04-29T18:15:27.177Z,16.38
2023-04-29T18:17:54.525Z,16.23
2023-04-29T18:20:22.569Z,16.08
2023-04-29T18:22:50.659Z,15.94
2023-04-29T18:25:17.934Z,15.80
2023-04-29T18:27:45.186Z,15.67
2023-04-29T18:30:12.422Z,15.54
2023-04-29T18:32:39.302Z,15.44
2023-04-29T18:35:06.279Z,15.32
2023-04-29T18:37:33.108Z,15.22
2023-04-29T18:40:00.371Z,15.12
2023-04-29T18:42:27.115Z,15.04
2023-04-29T18:44:53.928Z,14.95
2023-04-29T18:47:20.713Z,14.86
2023-04-29T18:49:47.534Z,14.77
2023-04-29T18:52:14.307Z,14.67
2023-04-29T18:54:41.493Z,14.59
2023-04-29T18:57:08.981Z,14.52
2023-04-29T18:59:37.839Z,14.47
2023-04-29T19:02:06.252Z,14.42
2023-04-29T19:04:34.159Z,14.36
2023-04-29T19:07:02.079Z,14.29
2023-04-29T19:09:31.683Z,14.25
2023-04-29T19:12:05.883Z,14.20
2023-04-29T19:14:34.171Z,14.15
2023-04-29T19:17:01.353Z,14.11
2023-04-29T19:19:28.118Z,14.07
2023-04-29T19:21:54.921Z,14.04
2023-04-29T19:24:21.690Z,14.00
2023-04-29T19:26:48.464Z,13.97
2023-04-29T19:29:16.157Z,13.93
2023-04-29T19:31:43.959Z,13.89
2023-04-29T19:34:12.027Z,13.86
2023-04-29T19:36:38.944Z,13.83
2023-04-29T19:39:05.789Z,13.79
2023-04-29T19:41:34.719Z,13.75
2023-04-29T19:44:02.464Z,13.70
2023-04-29T19:46:29.383Z,13.66
2023-04-29T19:48:56.164Z,13.61
2023-04-29T19:51:22.917Z,13.56
2023-04-29T19:53:49.797Z,13.51
2023-04-29T19:56:16.596Z,13.48
2023-04-29T19:58:43.763Z,13.44
2023-04-29T20:01:10.883Z,13.41
2023-04-29T20:03:39.463Z,13.36
2023-04-29T20:06:07.428Z,13.32
2023-04-29T20:08:34.249Z,13.29
2023-04-29T20:11:02.643Z,13.26
2023-04-29T20:13:29.581Z,13.23
2023-04-29T20:15:56.725Z,13.20
2023-04-29T20:18:23.554Z,13.17
2023-04-29T20:20:50.700Z,13.14
2023-04-29T20:23:17.717Z,13.10
2023-04-29T20:25:44.583Z,13.07
2023-04-29T20:28:11.334Z,13.02
2023-04-29T20:30:38.090Z,12.98
2023-04-29T20:33:06.942Z,12.96
2023-04-29T20:35:34.763Z,12.93
2023-04-29T20:38:01.541Z,12.90
2023-04-29T20:40:28.550Z,12.88
2023-04-29T20:42:55.534Z,12.85
2023-04-29T20:45:23.374Z,12.82
2023-04-29T20:47:50.788Z,12.79
2023-04-29T20:50:17.666Z,12.76
2023-04-29T20:52:46.347Z,12.74
2023-04-29T20:55:14.968Z,12.72
2023-04-29T20:57:41.911Z,12.71
2023-04-29T21:00:09.798Z,12.69
2023-04-29T21:02:36.691Z,12.67
2023-04-29T21:05:03.612Z,12.66
2023-04-29T21:07:30.746Z,12.65
2023-04-29T21:09:57.647Z,12.62
2023-04-29T21:12:25.015Z,12.59
2023-04-29T21:14:51.821Z,12.58
2023-04-29T21:17:18.680Z,12.56
2023-04-29T21:19:45.521Z,12.55
2023-04-29T21:22:12.572Z,12.54
2023-04-29T21:24:39.307Z,12.52
2023-04-29T21:27:06.077Z,12.51
2023-04-29T21:29:34.767Z,12.49
2023-04-29T21:32:01.508Z,12.48
2023-04-29T21:34:28.282Z,12.47
2023-04-29T21:36:55.026Z,12.46
2023-04-29T21:39:22.274Z,12.45
2023-04-29T21:41:49.649Z,12.44
2023-04-29T21:44:16.506Z,12.42
2023-04-29T21:46:43.320Z,12.40
2023-04-29T21:49:10.173Z,12.39
2023-04-29T21:51:36.919Z,12.38
2023-04-29T21:54:08.441Z,12.38
2023-04-29T21:56:35.735Z,12.35
2023-04-29T21:59:02.567Z,12.34
2023-04-29T22:01:41.496Z,12.33
2023-04-29T22:04:08.545Z,12.32
2023-04-29T22:06:35.719Z,12.30
2023-04-29T22:09:02.983Z,12.30
2023-04-29T22:11:29.986Z,12.29
2023-04-29T22:13:56.803Z,12.28
2023-04-29T22:16:23.726Z,12.28
2023-04-29T22:18:51.329Z,12.27
2023-04-29T22:21:18.618Z,12.25
2023-04-29T22:23:45.745Z,12.23
2023-04-29T22:26:12.519Z,12.22
2023-04-29T22:28:39.400Z,12.22
2023-04-29T22:31:06.691Z,12.21
2023-04-29T22:33:35.133Z,12.20
2023-04-29T22:36:02.344Z,12.19
2023-04-29T22:38:29.623Z,12.19
2023-04-29T22:40:56.560Z,12.18
2023-04-29T22:43:23.348Z,12.18
2023-04-29T22:45:53.759Z,12.18
2023-04-29T22:48:20.888Z,12.19
2023-04-29T22:50:54.988Z,12.18
2023-04-29T22:53:22.659Z,12.17
2023-04-29T22:55:56.532Z,12.15
2023-04-29T22:58:25.417Z,12.15
2023-04-29T23:00:54.082Z,12.13
2023-04-29T23:03:21.049Z,12.13
2023-04-29T23:05:47.934Z,12.12
2023-04-29T23:08:14.742Z,12.10
2023-04-29T23:10:41.947Z,12.09
2023-04-29T23:13:08.850Z,12.08
2023-04-29T23:15:35.818Z,12.06
2023-04-29T23:18:02.808Z,12.04
2023-04-29T23:20:29.691Z,12.03
2023-04-29T23:22:56.574Z,12.01
2023-04-29T23:25:23.353Z,11.99
2023-04-29T23:27:50.216Z,11.98
2023-04-29T23:30:17.157Z,11.96
2023-04-29T23:32:44.152Z,11.94
2023-04-29T23:35:12.174Z,11.93
2023-04-29T23:37:39.343Z,11.92
2023-04-29T23:40:07.119Z,11.90
2023-04-29T23:42:34.413Z,11.90
2023-04-29T23:45:01.175Z,11.89
2023-04-29T23:47:28.066Z,11.88
2023-04-29T23:49:55.677Z,11.86
2023-04-29T23:52:24.141Z,11.85
2023-04-29T23:54:51.098Z,11.84
2023-04-29T23:57:18.107Z,11.82
